Time;durP1;ratioP1;P1;durP2;ratioP2;P2;SDS_P1;SDS_P2;PMS_P1;PMS_P2;Temp;Humidity;BMP_temperature;BMP_pressure;BME280_temperature;BME280_humidity;BME280_pressure;Samples;Min_cycle;Max_cycle;Signal;HPM_P1;HPM_P2
2022/07/30 00:01:21;;;;;;;6.22;4.70;;;;;;;;;;5088575;27;20600;-67
2022/07/30 00:03:49;;;;;;;5.47;5.07;;;;;;;;;;5084782;28;20294;-67
2022/07/30 00:06:17;;;;;;;5.60;5.03;;;;;;;;;;5084826;28;20200;-68
2022/07/30 00:08:45;;;;;;;7.72;4.72;;;;;;;;;;5080625;28;20220;-67
2022/07/30 00:11:14;;;;;;;5.63;4.90;;;;;;;;;;5083458;28;20207;-66
2022/07/30 00:13:41;;;;;;;6.32;4.80;;;;;;;;;;5089464;28;20220;-67
2022/07/30 00:16:10;;;;;;;4.60;4.15;;;;;;;;;;5083943;28;20609;-66
2022/07/30 00:18:38;;;;;;;5.18;4.75;;;;;;;;;;5084694;28;20262;-65
2022/07/30 00:21:07;;;;;;;5.63;4.40;;;;;;;;;;5099332;28;20596;-66
2022/07/30 00:23:37;;;;;;;5.35;4.85;;;;;;;;;;5085583;28;20310;-67
2022/07/30 00:26:04;;;;;;;4.85;4.38;;;;;;;;;;5089631;28;20204;-65
2022/07/30 00:28:33;;;;;;;5.45;4.57;;;;;;;;;;5103428;27;20216;-68
2022/07/30 00:31:01;;;;;;;5.88;5.10;;;;;;;;;;5085834;28;20283;-67
2022/07/30 00:33:28;;;;;;;5.00;4.60;;;;;;;;;;5088498;28;20231;-65
2022/07/30 00:35:56;;;;;;;6.65;5.32;;;;;;;;;;5084493;28;20247;-66
2022/07/30 00:38:23;;;;;;;4.68;4.20;;;;;;;;;;5092909;27;20235;-67
2022/07/30 00:40:50;;;;;;;4.90;4.47;;;;;;;;;;5096076;28;20188;-67
2022/07/30 00:43:19;;;;;;;4.53;4.03;;;;;;;;;;5106628;27;20204;-66
2022/07/30 00:45:47;;;;;;;5.03;4.00;;;;;;;;;;5118534;27;20682;-64
2022/07/30 00:48:15;;;;;;;5.25;3.60;;;;;;;;;;5087097;28;20722;-66
2022/07/30 00:50:42;;;;;;;3.88;3.33;;;;;;;;;;5084630;28;20710;-64
2022/07/30 00:53:11;;;;;;;4.32;3.47;;;;;;;;;;5090603;28;20331;-66
2022/07/30 00:55:39;;;;;;;3.92;3.22;;;;;;;;;;5104553;27;22647;-66
2022/07/30 00:58:06;;;;;;;5.35;3.10;;;;;;;;;;5088492;28;20286;-66
2022/07/30 01:00:35;;;;;;;3.95;2.97;;;;;;;;;;5105796;27;20226;-66
2022/07/30 01:03:03;;;;;;;3.65;3.05;;;;;;;;;;5094719;28;20204;-66
2022/07/30 01:05:30;;;;;;;5.97;3.25;;;;;;;;;;5091498;28;20879;-66
2022/07/30 01:07:58;;;;;;;4.70;3.00;;;;;;;;;;5088577;28;20228;-67
2022/07/30 01:10:25;;;;;;;6.05;3.03;;;;;;;;;;5086321;28;20211;-66
2022/07/30 01:12:53;;;;;;;3.17;2.85;;;;;;;;;;5083759;27;20320;-66
2022/07/30 01:15:21;;;;;;;3.58;3.13;;;;;;;;;;5088486;28;20246;-66
2022/07/30 01:17:50;;;;;;;4.20;2.78;;;;;;;;;;5083640;28;20247;-66
2022/07/30 01:20:31;;;;;;;4.22;3.08;;;;;;;;;;5090351;28;20239;-66
2022/07/30 01:23:01;;;;;;;4.95;3.33;;;;;;;;;;5089630;28;20885;-66
2022/07/30 01:25:32;;;;;;;3.20;2.90;;;;;;;;;;5110225;27;20741;-66
2022/07/30 01:28:02;;;;;;;5.72;3.30;;;;;;;;;;5086258;28;20224;-66
2022/07/30 01:30:32;;;;;;;4.40;3.63;;;;;;;;;;5092256;27;20204;-66
2022/07/30 01:33:01;;;;;;;3.42;3.03;;;;;;;;;;5092153;27;20870;-66
2022/07/30 01:35:30;;;;;;;6.72;3.35;;;;;;;;;;5088528;28;20211;-66
2022/07/30 01:37:59;;;;;;;4.97;3.90;;;;;;;;;;5085193;28;20215;-66
2022/07/30 01:40:27;;;;;;;4.75;3.33;;;;;;;;;;5090191;28;20208;-66
2022/07/30 01:42:57;;;;;;;3.90;3.50;;;;;;;;;;5086025;28;20226;-66
2022/07/30 01:45:26;;;;;;;3.78;3.47;;;;;;;;;;5084450;28;20676;-66
2022/07/30 01:47:54;;;;;;;4.38;3.50;;;;;;;;;;5085909;28;20277;-66
2022/07/30 01:50:21;;;;;;;3.75;3.45;;;;;;;;;;5100131;27;20261;-66
2022/07/30 01:52:51;;;;;;;3.80;3.42;;;;;;;;;;5089365;28;20204;-65
2022/07/30 01:55:24;;;;;;;4.32;3.67;;;;;;;;;;5086181;28;20596;-66
2022/07/30 01:57:51;;;;;;;7.03;4.38;;;;;;;;;;5084539;28;20224;-66
2022/07/30 02:00:19;;;;;;;3.78;3.47;;;;;;;;;;5102067;28;20196;-66
2022/07/30 02:02:47;;;;;;;5.45;3.38;;;;;;;;;;5082268;27;20219;-66
2022/07/30 02:05:15;;;;;;;4.47;3.50;;;;;;;;;;5078339;27;20570;-66
2022/07/30 02:07:45;;;;;;;4.53;3.47;;;;;;;;;;5083872;28;20273;-68
2022/07/30 02:10:15;;;;;;;4.13;3.72;;;;;;;;;;5083686;27;20306;-65
2022/07/30 02:12:50;;;;;;;4.18;3.65;;;;;;;;;;5083411;28;20258;-69
2022/07/30 02:15:38;;;;;;;5.20;3.72;;;;;;;;;;5084735;28;20197;-67
2022/07/30 02:18:17;;;;;;;4.93;3.80;;;;;;;;;;5079393;28;20216;-69
2022/07/30 02:20:53;;;;;;;4.30;3.90;;;;;;;;;;5102340;28;20261;-67
2022/07/30 02:23:23;;;;;;;5.32;3.78;;;;;;;;;;5086047;28;20921;-67
2022/07/30 02:25:51;;;;;;;5.95;4.18;;;;;;;;;;5084860;27;20746;-66
2022/07/30 02:28:20;;;;;;;7.00;4.28;;;;;;;;;;5082325;27;20458;-67
2022/07/30 02:30:49;;;;;;;5.53;4.10;;;;;;;;;;5101871;28;20208;-65
2022/07/30 02:33:20;;;;;;;5.20;4.50;;;;;;;;;;5080546;28;20593;-67
2022/07/30 02:35:49;;;;;;;5.30;4.32;;;;;;;;;;5094957;27;20314;-66
2022/07/30 02:38:17;;;;;;;6.97;4.45;;;;;;;;;;5086762;27;20266;-65
2022/07/30 02:40:44;;;;;;;5.35;4.80;;;;;;;;;;5092078;28;20215;-69
2022/07/30 02:43:15;;;;;;;5.28;4.45;;;;;;;;;;5082036;28;20246;-63
2022/07/30 02:45:45;;;;;;;4.47;3.95;;;;;;;;;;5102061;27;20317;-66
2022/07/30 02:48:13;;;;;;;7.10;4.47;;;;;;;;;;5084853;28;20789;-65
2022/07/30 02:51:02;;;;;;;4.95;4.47;;;;;;;;;;5083863;28;20196;-65
2022/07/30 02:53:30;;;;;;;5.78;4.68;;;;;;;;;;5085080;27;20223;-67
2022/07/30 02:55:59;;;;;;;4.88;4.38;;;;;;;;;;5084785;28;20197;-67
2022/07/30 02:58:28;;;;;;;7.10;4.75;;;;;;;;;;5113719;27;20714;-65
2022/07/30 03:00:56;;;;;;;5.15;4.60;;;;;;;;;;5091245;28;20220;-67
2022/07/30 03:03:27;;;;;;;5.80;5.07;;;;;;;;;;5076954;28;20418;-65
2022/07/30 03:05:55;;;;;;;5.20;4.65;;;;;;;;;;5092034;28;20200;-65
2022/07/30 03:08:24;;;;;;;6.03;4.80;;;;;;;;;;5087531;27;20331;-65
2022/07/30 03:10:55;;;;;;;8.38;4.95;;;;;;;;;;5105500;27;20200;-68
2022/07/30 03:13:23;;;;;;;5.65;5.20;;;;;;;;;;5078189;27;20290;-65
2022/07/30 03:15:51;;;;;;;7.32;5.30;;;;;;;;;;5079396;28;20211;-65
2022/07/30 03:18:20;;;;;;;8.35;5.40;;;;;;;;;;5081475;28;20235;-69
2022/07/30 03:20:49;;;;;;;5.63;4.90;;;;;;;;;;5089053;28;20204;-65
2022/07/30 03:23:18;;;;;;;8.25;5.32;;;;;;;;;;5105827;27;20196;-69
2022/07/30 03:25:50;;;;;;;8.00;5.88;;;;;;;;;;5083123;28;20690;-64
2022/07/30 03:28:22;;;;;;;6.13;5.30;;;;;;;;;;5086575;28;20742;-64
2022/07/30 03:30:50;;;;;;;6.97;6.22;;;;;;;;;;5083431;28;20208;-66
2022/07/30 03:33:18;;;;;;;9.50;8.45;;;;;;;;;;5089289;28;20196;-66
2022/07/30 03:35:47;;;;;;;7.57;6.63;;;;;;;;;;5091417;27;20200;-65
2022/07/30 03:38:15;;;;;;;8.57;6.60;;;;;;;;;;5083300;28;20691;-64
2022/07/30 03:40:43;;;;;;;12.32;7.15;;;;;;;;;;5089387;28;20208;-65
2022/07/30 03:43:11;;;;;;;11.07;6.32;;;;;;;;;;5083607;28;20801;-63
2022/07/30 03:45:59;;;;;;;7.00;5.90;;;;;;;;;;5081713;28;20212;-65
2022/07/30 03:48:27;;;;;;;8.23;6.65;;;;;;;;;;5085553;27;20219;-64
2022/07/30 03:50:55;;;;;;;8.45;6.55;;;;;;;;;;5084337;28;20218;-67
2022/07/30 03:53:23;;;;;;;7.75;6.72;;;;;;;;;;5075216;28;20709;-69
2022/07/30 03:55:52;;;;;;;8.05;6.63;;;;;;;;;;5075997;27;20205;-65
2022/07/30 03:58:19;;;;;;;8.88;7.30;;;;;;;;;;5110241;27;20748;-66
2022/07/30 04:00:48;;;;;;;8.13;6.75;;;;;;;;;;5089223;28;20200;-67
2022/07/30 04:03:26;;;;;;;7.32;6.55;;;;;;;;;;5074253;28;20203;-65
2022/07/30 04:05:53;;;;;;;7.37;6.37;;;;;;;;;;5093613;28;20231;-69
2022/07/30 04:08:20;;;;;;;10.27;6.60;;;;;;;;;;5096180;28;20228;-65
2022/07/30 04:10:50;;;;;;;7.55;6.57;;;;;;;;;;5077976;28;20231;-69
2022/07/30 04:13:17;;;;;;;9.20;6.80;;;;;;;;;;5097489;28;20208;-65
2022/07/30 04:15:57;;;;;;;7.70;6.45;;;;;;;;;;5076619;28;20196;-65
2022/07/30 04:18:47;;;;;;;7.63;6.30;;;;;;;;;;5081863;28;20286;-66
2022/07/30 04:21:16;;;;;;;9.43;7.53;;;;;;;;;;5072637;28;20253;-66
2022/07/30 04:23:44;;;;;;;8.52;7.00;;;;;;;;;;5078563;28;20208;-64
2022/07/30 04:26:31;;;;;;;11.77;8.20;;;;;;;;;;5079993;28;20212;-64
2022/07/30 04:28:59;;;;;;;9.40;7.60;;;;;;;;;;5078327;28;20710;-64
2022/07/30 04:31:27;;;;;;;8.47;7.67;;;;;;;;;;5076845;28;21360;-69
2022/07/30 04:33:55;;;;;;;12.50;8.80;;;;;;;;;;5075635;28;20231;-64
2022/07/30 04:36:32;;;;;;;12.17;9.80;;;;;;;;;;5074868;28;20206;-67
2022/07/30 04:39:00;;;;;;;8.80;7.60;;;;;;;;;;5080653;28;20208;-64
2022/07/30 04:41:27;;;;;;;8.97;7.70;;;;;;;;;;5074034;28;20575;-68
2022/07/30 04:44:15;;;;;;;8.23;7.43;;;;;;;;;;5085445;28;20249;-65
2022/07/30 04:46:42;;;;;;;9.83;7.47;;;;;;;;;;5079960;28;20247;-64
2022/07/30 04:49:11;;;;;;;8.27;7.47;;;;;;;;;;5077240;28;20683;-68
2022/07/30 04:51:39;;;;;;;8.38;7.57;;;;;;;;;;5077807;28;20211;-65
2022/07/30 04:54:09;;;;;;;9.00;7.88;;;;;;;;;;5076243;28;20566;-65
2022/07/30 04:56:43;;;;;;;8.95;7.78;;;;;;;;;;5069697;28;20229;-66
2022/07/30 04:59:21;;;;;;;9.85;8.27;;;;;;;;;;5095473;28;20204;-65
2022/07/30 05:01:49;;;;;;;8.57;7.43;;;;;;;;;;5093172;28;20666;-69
2022/07/30 05:04:17;;;;;;;10.30;8.25;;;;;;;;;;5070046;28;20232;-65
2022/07/30 05:06:45;;;;;;;12.17;8.63;;;;;;;;;;5076398;28;20277;-65
2022/07/30 05:09:14;;;;;;;10.07;7.57;;;;;;;;;;5069601;28;20632;-67
2022/07/30 05:11:42;;;;;;;10.20;7.63;;;;;;;;;;5077912;28;20204;-65
2022/07/30 05:14:09;;;;;;;9.03;7.73;;;;;;;;;;5066669;28;20228;-65
2022/07/30 05:16:37;;;;;;;8.02;6.82;;;;;;;;;;5096746;27;20224;-66
2022/07/30 05:19:05;;;;;;;7.95;7.18;;;;;;;;;;5087747;28;20201;-65
2022/07/30 05:21:34;;;;;;;9.45;8.43;;;;;;;;;;5094357;27;20667;-65
2022/07/30 05:24:01;;;;;;;9.75;7.90;;;;;;;;;;5102486;28;20215;-66
2022/07/30 05:26:28;;;;;;;9.02;8.07;;;;;;;;;;5083620;28;20261;-66
2022/07/30 05:28:56;;;;;;;8.70;7.80;;;;;;;;;;5091617;28;20208;-66
2022/07/30 05:31:24;;;;;;;8.75;7.85;;;;;;;;;;5070424;28;20226;-64
2022/07/30 05:33:52;;;;;;;8.65;7.68;;;;;;;;;;5081597;28;20212;-64
2022/07/30 05:36:20;;;;;;;11.23;6.30;;;;;;;;;;5100902;27;20576;-66
2022/07/30 05:38:48;;;;;;;6.38;5.05;;;;;;;;;;5086965;28;20243;-65
2022/07/30 05:41:15;;;;;;;6.57;4.65;;;;;;;;;;5102396;27;20677;-68
2022/07/30 05:43:58;;;;;;;5.82;4.40;;;;;;;;;;5088306;27;20200;-69
2022/07/30 05:46:26;;;;;;;5.07;4.20;;;;;;;;;;5081615;28;20636;-66
2022/07/30 05:48:53;;;;;;;5.13;4.00;;;;;;;;;;5081154;28;20265;-66
2022/07/30 05:51:21;;;;;;;8.55;4.18;;;;;;;;;;5086055;28;20178;-67
2022/07/30 05:53:49;;;;;;;4.22;3.83;;;;;;;;;;5087630;28;20215;-66
2022/07/30 05:56:16;;;;;;;7.93;4.18;;;;;;;;;;5083456;27;20651;-66
2022/07/30 05:58:43;;;;;;;5.40;4.90;;;;;;;;;;5088427;28;20578;-66
2022/07/30 06:01:11;;;;;;;6.63;4.45;;;;;;;;;;5093377;27;20809;-66
2022/07/30 06:03:38;;;;;;;5.38;4.28;;;;;;;;;;5086764;27;20200;-66
2022/07/30 06:06:07;;;;;;;6.93;4.45;;;;;;;;;;5081699;28;20209;-67
2022/07/30 06:08:35;;;;;;;7.63;4.30;;;;;;;;;;5101971;28;20228;-67
2022/07/30 06:11:03;;;;;;;7.13;4.75;;;;;;;;;;5085076;28;20200;-68
2022/07/30 06:13:31;;;;;;;6.35;4.55;;;;;;;;;;5086234;28;20208;-68
2022/07/30 06:15:58;;;;;;;5.60;4.22;;;;;;;;;;5094993;27;20223;-67
2022/07/30 06:18:26;;;;;;;7.50;4.30;;;;;;;;;;5083577;28;20231;-67
2022/07/30 06:20:54;;;;;;;6.97;5.28;;;;;;;;;;5098015;27;20206;-65
2022/07/30 06:23:21;;;;;;;5.45;4.95;;;;;;;;;;5078177;27;20203;-67
2022/07/30 06:25:49;;;;;;;6.95;4.90;;;;;;;;;;5105797;27;20581;-67
2022/07/30 06:28:17;;;;;;;5.70;4.95;;;;;;;;;;5082588;28;20232;-66
2022/07/30 06:31:05;;;;;;;7.32;5.30;;;;;;;;;;5094440;28;20200;-66
2022/07/30 06:33:33;;;;;;;6.55;5.00;;;;;;;;;;5102439;27;20204;-66
2022/07/30 06:36:00;;;;;;;7.82;4.75;;;;;;;;;;5084287;28;20224;-66
2022/07/30 06:38:28;;;;;;;6.18;5.57;;;;;;;;;;5079925;28;20260;-66
2022/07/30 06:40:55;;;;;;;6.22;4.80;;;;;;;;;;5087533;28;20617;-66
2022/07/30 06:43:28;;;;;;;5.30;4.78;;;;;;;;;;5094824;27;20458;-65
2022/07/30 06:45:56;;;;;;;7.25;5.07;;;;;;;;;;5095204;28;20224;-66
2022/07/30 06:48:23;;;;;;;7.93;6.15;;;;;;;;;;5088112;27;20224;-67
2022/07/30 06:50:50;;;;;;;7.00;5.57;;;;;;;;;;5084715;28;20208;-65
2022/07/30 06:53:18;;;;;;;8.30;6.50;;;;;;;;;;5097161;28;20257;-65
2022/07/30 06:55:45;;;;;;;12.40;6.65;;;;;;;;;;5073083;28;20698;-64
2022/07/30 06:58:13;;;;;;;11.48;8.00;;;;;;;;;;5078988;28;20579;-63
2022/07/30 07:00:41;;;;;;;11.85;8.77;;;;;;;;;;5091058;27;20338;-64
2022/07/30 07:03:09;;;;;;;9.07;7.25;;;;;;;;;;5075867;27;20204;-64
2022/07/30 07:05:38;;;;;;;11.80;8.70;;;;;;;;;;5085325;28;20220;-64
2022/07/30 07:08:05;;;;;;;11.73;8.98;;;;;;;;;;5081740;27;20249;-65
2022/07/30 07:10:33;;;;;;;11.32;8.68;;;;;;;;;;5076673;28;20211;-65
2022/07/30 07:13:00;;;;;;;9.65;7.78;;;;;;;;;;5087202;27;20220;-65
2022/07/30 07:15:27;;;;;;;12.10;8.27;;;;;;;;;;5087078;27;20252;-63
2022/07/30 07:18:04;;;;;;;9.88;8.32;;;;;;;;;;5091399;27;20657;-65
2022/07/30 07:20:32;;;;;;;14.60;9.07;;;;;;;;;;5095021;27;20600;-64
2022/07/30 07:23:00;;;;;;;12.27;8.38;;;;;;;;;;5098327;28;20207;-64
2022/07/30 07:25:35;;;;;;;12.07;9.60;;;;;;;;;;5090092;27;20239;-65
2022/07/30 07:28:02;;;;;;;15.43;9.98;;;;;;;;;;5089740;28;20228;-64
2022/07/30 07:30:39;;;;;;;12.40;8.35;;;;;;;;;;5089278;27;20237;-64
2022/07/30 07:33:07;;;;;;;15.52;9.68;;;;;;;;;;5092615;28;20205;-63
2022/07/30 07:35:35;;;;;;;12.57;8.60;;;;;;;;;;5088732;28;20603;-64
2022/07/30 07:38:17;;;;;;;14.60;9.07;;;;;;;;;;5101178;28;20224;-65
2022/07/30 07:40:44;;;;;;;11.55;8.38;;;;;;;;;;5085510;27;20207;-64
2022/07/30 07:43:12;;;;;;;11.13;8.02;;;;;;;;;;5075192;28;20223;-65
2022/07/30 07:45:40;;;;;;;9.27;6.90;;;;;;;;;;5078870;28;20301;-65
2022/07/30 07:48:09;;;;;;;8.07;6.75;;;;;;;;;;5081242;28;20744;-64
2022/07/30 07:50:37;;;;;;;7.50;5.60;;;;;;;;;;5109508;27;20210;-66
2022/07/30 07:53:05;;;;;;;6.60;5.80;;;;;;;;;;5080140;28;20219;-65
2022/07/30 07:55:32;;;;;;;5.47;5.03;;;;;;;;;;5092988;28;20278;-63
2022/07/30 07:58:00;;;;;;;6.43;5.40;;;;;;;;;;5089109;27;20265;-65
2022/07/30 08:00:27;;;;;;;7.22;4.70;;;;;;;;;;5088504;27;20238;-65
2022/07/30 08:02:55;;;;;;;5.35;4.38;;;;;;;;;;5082873;28;20236;-64
2022/07/30 08:05:23;;;;;;;4.45;3.60;;;;;;;;;;5102462;28;20196;-64
2022/07/30 08:07:50;;;;;;;6.07;3.90;;;;;;;;;;5099566;28;20220;-66
2022/07/30 08:10:18;;;;;;;6.03;4.07;;;;;;;;;;5084786;28;22526;-64
2022/07/30 08:12:45;;;;;;;4.18;3.78;;;;;;;;;;5102086;28;20204;-64
2022/07/30 08:15:13;;;;;;;3.90;3.00;;;;;;;;;;5093530;27;20224;-66
2022/07/30 08:17:46;;;;;;;4.50;3.13;;;;;;;;;;5084476;28;20263;-64
2022/07/30 08:20:15;;;;;;;4.43;2.70;;;;;;;;;;5089522;28;20199;-63
2022/07/30 08:22:42;;;;;;;2.90;2.70;;;;;;;;;;5084273;28;20200;-64
2022/07/30 08:25:10;;;;;;;3.15;2.80;;;;;;;;;;5087888;28;20761;-64
2022/07/30 08:27:50;;;;;;;5.03;3.40;;;;;;;;;;5082237;28;20234;-64
2022/07/30 08:30:19;;;;;;;6.97;3.88;;;;;;;;;;5095666;28;20216;-64
2022/07/30 08:32:47;;;;;;;4.25;2.97;;;;;;;;;;5083033;28;20212;-62
2022/07/30 08:35:14;;;;;;;3.85;2.90;;;;;;;;;;5086421;28;20222;-65
2022/07/30 08:37:42;;;;;;;7.30;3.65;;;;;;;;;;5078145;28;20227;-64
2022/07/30 08:40:09;;;;;;;5.25;3.63;;;;;;;;;;5081051;28;20200;-65
2022/07/30 08:42:37;;;;;;;3.55;3.08;;;;;;;;;;5083283;28;20220;-63
2022/07/30 08:45:06;;;;;;;4.68;3.45;;;;;;;;;;5085582;28;20211;-64
2022/07/30 08:47:33;;;;;;;3.20;2.90;;;;;;;;;;5077341;28;20240;-66
2022/07/30 08:50:04;;;;;;;4.05;3.25;;;;;;;;;;5083250;28;20216;-65
2022/07/30 08:52:32;;;;;;;4.55;3.22;;;;;;;;;;5087825;27;20214;-64
2022/07/30 08:55:00;;;;;;;5.50;2.88;;;;;;;;;;5102484;28;20224;-63
2022/07/30 08:57:31;;;;;;;3.90;3.20;;;;;;;;;;5085879;28;20281;-65
2022/07/30 08:59:59;;;;;;;5.30;3.13;;;;;;;;;;5094049;28;20211;-64
2022/07/30 09:02:30;;;;;;;6.75;3.45;;;;;;;;;;5081950;27;20668;-67
2022/07/30 09:04:57;;;;;;;3.53;3.22;;;;;;;;;;5082608;27;20247;-63
2022/07/30 09:07:25;;;;;;;4.97;3.30;;;;;;;;;;5086874;27;20223;-66
2022/07/30 09:09:52;;;;;;;4.15;3.08;;;;;;;;;;5086728;27;20298;-63
2022/07/30 09:12:39;;;;;;;5.72;3.22;;;;;;;;;;5110498;27;20208;-63
2022/07/30 09:15:18;;;;;;;6.43;3.53;;;;;;;;;;5080885;28;20231;-67
2022/07/30 09:17:51;;;;;;;4.88;3.10;;;;;;;;;;5074905;28;20232;-64
2022/07/30 09:20:21;;;;;;;4.00;2.83;;;;;;;;;;5083606;28;20246;-65
2022/07/30 09:22:50;;;;;;;4.50;3.10;;;;;;;;;;5103014;27;20631;-67
2022/07/30 09:25:44;;;;;;;4.15;3.08;;;;;;;;;;5084090;28;20625;-64
2022/07/30 09:28:14;;;;;;;4.53;3.60;;;;;;;;;;5080926;28;20991;-65
2022/07/30 09:30:53;;;;;;;5.20;3.78;;;;;;;;;;5088391;27;20211;-65
2022/07/30 09:33:34;;;;;;;4.97;3.35;;;;;;;;;;5086304;27;20203;-63
2022/07/30 09:36:03;;;;;;;3.50;3.10;;;;;;;;;;5101223;27;20232;-64
2022/07/30 09:38:41;;;;;;;7.07;3.05;;;;;;;;;;5084276;28;20216;-63
2022/07/30 09:41:08;;;;;;;6.03;3.40;;;;;;;;;;5081743;28;20228;-65
2022/07/30 09:43:56;;;;;;;3.92;3.30;;;;;;;;;;5115980;27;20199;-65
2022/07/30 09:46:39;;;;;;;3.70;3.25;;;;;;;;;;5090110;28;20215;-66
2022/07/30 09:49:14;;;;;;;3.40;3.10;;;;;;;;;;5106476;27;20199;-65
2022/07/30 09:51:41;;;;;;;4.45;2.85;;;;;;;;;;5090351;27;20678;-66
2022/07/30 09:54:24;;;;;;;5.03;2.80;;;;;;;;;;5094438;27;20207;-64
2022/07/30 09:57:07;;;;;;;3.70;3.22;;;;;;;;;;5082878;28;21084;-65
2022/07/30 09:59:57;;;;;;;3.08;2.30;;;;;;;;;;5070672;28;20856;-64
2022/07/30 10:02:46;;;;;;;5.43;2.85;;;;;;;;;;5071793;28;20197;-65
2022/07/30 10:05:15;;;;;;;3.00;2.70;;;;;;;;;;5099040;27;20196;-64
2022/07/30 10:07:51;;;;;;;4.15;2.50;;;;;;;;;;5087921;27;20326;-65
2022/07/30 10:10:20;;;;;;;5.78;2.50;;;;;;;;;;5089885;27;20204;-66
2022/07/30 10:12:52;;;;;;;2.47;2.28;;;;;;;;;;5091453;27;20295;-65
2022/07/30 10:15:21;;;;;;;2.75;2.25;;;;;;;;;;5080354;28;20277;-66
2022/07/30 10:17:48;;;;;;;4.43;2.30;;;;;;;;;;5092406;27;21474;-67
2022/07/30 10:20:17;;;;;;;3.25;2.20;;;;;;;;;;5078888;27;20589;-64
2022/07/30 10:22:44;;;;;;;3.85;2.35;;;;;;;;;;5102515;27;20204;-66
2022/07/30 10:25:17;;;;;;;3.35;2.03;;;;;;;;;;5086435;27;21265;-65
2022/07/30 10:27:48;;;;;;;4.80;2.30;;;;;;;;;;5094452;28;20220;-64
2022/07/30 10:30:15;;;;;;;2.33;1.90;;;;;;;;;;5086480;27;20207;-64
2022/07/30 10:32:46;;;;;;;4.28;2.38;;;;;;;;;;5095999;27;20230;-64
2022/07/30 10:35:19;;;;;;;3.40;1.88;;;;;;;;;;5077709;28;20259;-65
2022/07/30 10:38:07;;;;;;;2.17;1.98;;;;;;;;;;5078276;27;20227;-65
2022/07/30 10:40:37;;;;;;;2.58;1.67;;;;;;;;;;5094372;28;20609;-67
2022/07/30 10:43:25;;;;;;;1.50;1.40;;;;;;;;;;5077187;28;20223;-64
2022/07/30 10:45:57;;;;;;;2.03;1.83;;;;;;;;;;5077123;27;21011;-64
2022/07/30 10:48:27;;;;;;;4.10;2.00;;;;;;;;;;5082698;28;20224;-64
2022/07/30 10:50:56;;;;;;;4.80;1.80;;;;;;;;;;5079296;27;20769;-65
2022/07/30 10:53:37;;;;;;;2.75;1.80;;;;;;;;;;5087991;27;20246;-65
2022/07/30 10:56:20;;;;;;;3.83;2.80;;;;;;;;;;5107027;27;20969;-65
2022/07/30 10:59:01;;;;;;;3.13;1.95;;;;;;;;;;5079499;27;20207;-65
2022/07/30 11:02:04;;;;;;;3.65;1.95;;;;;;;;;;5076513;28;20279;-64
2022/07/30 11:04:33;;;;;;;2.10;1.75;;;;;;;;;;5030159;28;20297;-63
2022/07/30 11:07:20;;;;;;;1.73;1.63;;;;;;;;;;5085935;27;20742;-65
2022/07/30 11:09:53;;;;;;;2.38;1.50;;;;;;;;;;5081825;27;20299;-64
2022/07/30 11:12:41;;;;;;;1.65;1.55;;;;;;;;;;5081085;27;20552;-64
2022/07/30 11:15:21;;;;;;;2.08;1.90;;;;;;;;;;5082340;28;20204;-65
2022/07/30 11:18:03;;;;;;;1.60;1.50;;;;;;;;;;5071710;28;20817;-65
2022/07/30 11:20:38;;;;;;;1.60;1.50;;;;;;;;;;5072296;27;20291;-66
2022/07/30 11:23:10;;;;;;;2.35;1.45;;;;;;;;;;5085597;28;20200;-66
2022/07/30 11:25:42;;;;;;;2.70;1.55;;;;;;;;;;5078708;28;20250;-65
2022/07/30 11:28:35;;;;;;;3.85;1.70;;;;;;;;;;5073175;27;20274;-65
2022/07/30 11:31:08;;;;;;;2.17;1.40;;;;;;;;;;5081123;28;20200;-64
2022/07/30 11:33:36;;;;;;;3.83;1.80;;;;;;;;;;5079005;28;20220;-65
2022/07/30 11:36:07;;;;;;;2.47;1.42;;;;;;;;;;5093709;27;20705;-67
2022/07/30 11:39:03;;;;;;;2.90;1.70;;;;;;;;;;5085235;27;20335;-66
2022/07/30 11:41:33;;;;;;;4.13;1.70;;;;;;;;;;5083970;28;20460;-67
2022/07/30 11:44:19;;;;;;;2.67;1.60;;;;;;;;;;5070471;28;20255;-67
2022/07/30 11:46:48;;;;;;;3.35;1.55;;;;;;;;;;5081861;28;20499;-66
2022/07/30 11:49:16;;;;;;;2.83;1.88;;;;;;;;;;5106649;27;20246;-66
2022/07/30 11:51:44;;;;;;;2.40;1.75;;;;;;;;;;5086978;28;20209;-66
2022/07/30 11:54:12;;;;;;;3.03;1.67;;;;;;;;;;5082091;28;20204;-66
2022/07/30 11:56:52;;;;;;;1.70;1.40;;;;;;;;;;5087615;27;20714;-67
2022/07/30 11:59:20;;;;;;;1.73;1.40;;;;;;;;;;5082051;28;20192;-67
2022/07/30 12:02:00;;;;;;;2.00;1.40;;;;;;;;;;5083208;28;20640;-67
2022/07/30 12:04:28;;;;;;;2.40;1.80;;;;;;;;;;5093911;27;20750;-68
2022/07/30 12:06:55;;;;;;;2.38;1.75;;;;;;;;;;5076710;28;20216;-67
2022/07/30 12:09:27;;;;;;;2.15;1.60;;;;;;;;;;5099138;28;20200;-67
2022/07/30 12:11:56;;;;;;;2.67;1.70;;;;;;;;;;5081818;28;20207;-69
2022/07/30 12:14:24;;;;;;;2.78;1.70;;;;;;;;;;5086557;28;20200;-68
2022/07/30 12:16:53;;;;;;;1.23;1.23;;;;;;;;;;5085683;28;20603;-68
2022/07/30 12:19:20;;;;;;;1.80;1.42;;;;;;;;;;5095669;28;20215;-67
2022/07/30 12:21:48;;;;;;;3.20;1.58;;;;;;;;;;5100394;28;20211;-65
2022/07/30 12:24:24;;;;;;;1.83;1.42;;;;;;;;;;5081311;28;20331;-67
2022/07/30 12:26:52;;;;;;;1.75;1.40;;;;;;;;;;5084531;27;20285;-67
2022/07/30 12:29:19;;;;;;;2.38;1.80;;;;;;;;;;5084148;28;20208;-70
2022/07/30 12:31:47;;;;;;;2.88;1.70;;;;;;;;;;5088740;27;20195;-67
2022/07/30 12:34:22;;;;;;;3.22;1.38;;;;;;;;;;5087095;28;20667;-66
2022/07/30 12:36:50;;;;;;;1.63;1.42;;;;;;;;;;5081422;28;20219;-67
2022/07/30 12:39:25;;;;;;;1.50;1.40;;;;;;;;;;5087935;28;20239;-69
2022/07/30 12:41:57;;;;;;;3.53;1.33;;;;;;;;;;5084589;28;20268;-66
2022/07/30 12:44:41;;;;;;;3.10;1.40;;;;;;;;;;5085808;28;20202;-66
2022/07/30 12:47:19;;;;;;;4.60;1.33;;;;;;;;;;5095979;28;20243;-67
2022/07/30 12:49:48;;;;;;;1.52;1.30;;;;;;;;;;5085280;27;20204;-66
2022/07/30 12:52:20;;;;;;;1.70;1.40;;;;;;;;;;5083238;28;20216;-68
2022/07/30 12:54:58;;;;;;;1.55;1.45;;;;;;;;;;5084975;27;20208;-69
2022/07/30 12:57:26;;;;;;;3.33;1.23;;;;;;;;;;5085140;28;20862;-71
2022/07/30 13:00:07;;;;;;;2.05;1.20;;;;;;;;;;5102770;27;20205;-65
2022/07/30 13:02:35;;;;;;;1.40;1.30;;;;;;;;;;5099648;27;20212;-67
2022/07/30 13:05:03;;;;;;;3.42;1.40;;;;;;;;;;5087808;28;20295;-70
2022/07/30 13:07:54;;;;;;;2.92;1.10;;;;;;;;;;5087430;28;20224;-67
2022/07/30 13:10:21;;;;;;;1.40;1.30;;;;;;;;;;5084013;28;20200;-68
2022/07/30 13:12:53;;;;;;;2.47;1.35;;;;;;;;;;5080450;27;20213;-68
2022/07/30 13:15:21;;;;;;;2.42;1.48;;;;;;;;;;5081030;28;20493;-66
2022/07/30 13:17:49;;;;;;;2.15;1.95;;;;;;;;;;5079651;27;20234;-67
2022/07/30 13:20:17;;;;;;;3.53;1.30;;;;;;;;;;5087247;28;20196;-66
2022/07/30 13:22:44;;;;;;;1.50;1.40;;;;;;;;;;5077773;28;20201;-67
2022/07/30 13:25:12;;;;;;;1.50;1.40;;;;;;;;;;5079432;28;20655;-67
2022/07/30 13:27:40;;;;;;;2.45;1.17;;;;;;;;;;5092815;28;20235;-67
2022/07/30 13:30:07;;;;;;;1.73;1.23;;;;;;;;;;5091114;28;20204;-70
2022/07/30 13:32:35;;;;;;;2.00;1.20;;;;;;;;;;5084508;28;20231;-66
2022/07/30 13:35:03;;;;;;;2.95;1.20;;;;;;;;;;5089265;28;20278;-66
2022/07/30 13:37:31;;;;;;;2.42;1.58;;;;;;;;;;5089263;27;20228;-67
2022/07/30 13:40:04;;;;;;;3.67;1.13;;;;;;;;;;5093599;28;20200;-67
2022/07/30 13:42:32;;;;;;;1.42;1.33;;;;;;;;;;5095138;28;20262;-69
2022/07/30 13:45:00;;;;;;;2.72;1.27;;;;;;;;;;5124418;27;20263;-67
2022/07/30 13:47:27;;;;;;;1.40;1.30;;;;;;;;;;5109094;28;20233;-66
2022/07/30 13:49:55;;;;;;;1.05;0.95;;;;;;;;;;5090290;28;20212;-68
2022/07/30 13:52:22;;;;;;;1.90;1.15;;;;;;;;;;5088083;28;20204;-67
2022/07/30 13:54:52;;;;;;;3.00;1.17;;;;;;;;;;5083324;28;20208;-67
2022/07/30 13:57:19;;;;;;;3.33;1.20;;;;;;;;;;5085880;28;20277;-66
2022/07/30 13:59:47;;;;;;;2.92;1.23;;;;;;;;;;5110155;27;20200;-66
2022/07/30 14:02:14;;;;;;;1.15;1.10;;;;;;;;;;5078070;28;20197;-67
2022/07/30 14:04:41;;;;;;;1.10;1.10;;;;;;;;;;5071739;28;20205;-68
2022/07/30 14:07:10;;;;;;;1.70;1.15;;;;;;;;;;5078546;28;20220;-68
2022/07/30 14:09:38;;;;;;;2.80;1.60;;;;;;;;;;5083874;28;20204;-66
2022/07/30 14:12:13;;;;;;;3.28;1.50;;;;;;;;;;5084425;28;20230;-66
2022/07/30 14:14:40;;;;;;;2.40;1.20;;;;;;;;;;5081768;28;20193;-68
2022/07/30 14:17:07;;;;;;;3.55;1.40;;;;;;;;;;5085017;28;20219;-70
2022/07/30 14:19:34;;;;;;;2.28;1.30;;;;;;;;;;5087613;28;20192;-66
2022/07/30 14:22:02;;;;;;;1.73;1.40;;;;;;;;;;5087331;28;20208;-67
2022/07/30 14:24:29;;;;;;;1.30;1.17;;;;;;;;;;5089301;27;20202;-66
2022/07/30 14:26:57;;;;;;;2.90;1.40;;;;;;;;;;5107014;27;20265;-66
2022/07/30 14:29:25;;;;;;;1.33;1.23;;;;;;;;;;5082995;28;20626;-66
2022/07/30 14:31:53;;;;;;;1.50;1.30;;;;;;;;;;5085107;28;20204;-68
2022/07/30 14:34:21;;;;;;;1.63;1.23;;;;;;;;;;5091481;27;20737;-68
2022/07/30 14:36:48;;;;;;;1.42;1.33;;;;;;;;;;5084934;28;20247;-68
2022/07/30 14:39:15;;;;;;;2.55;1.25;;;;;;;;;;5090908;27;20269;-66
2022/07/30 14:41:43;;;;;;;1.25;1.25;;;;;;;;;;5086037;27;20667;-68
2022/07/30 14:44:12;;;;;;;;;;;;;;;;;;5097364;27;20245;-66
2022/07/30 14:46:41;;;;;;;2.10;1.20;;;;;;;;;;5083653;27;19927;-66
2022/07/30 14:49:19;;;;;;;1.48;1.25;;;;;;;;;;5091370;27;20200;-66
2022/07/30 14:51:47;;;;;;;1.23;1.23;;;;;;;;;;5084609;28;20285;-66
2022/07/30 14:54:14;;;;;;;1.63;1.30;;;;;;;;;;5078867;28;20204;-67
2022/07/30 14:56:42;;;;;;;3.38;1.60;;;;;;;;;;5087182;27;20695;-67
2022/07/30 14:59:10;;;;;;;1.42;1.33;;;;;;;;;;5104140;27;20623;-66
2022/07/30 15:01:37;;;;;;;4.95;1.40;;;;;;;;;;5099838;28;20734;-68
2022/07/30 15:04:08;;;;;;;1.40;1.30;;;;;;;;;;5094302;27;20340;-66